首页
METAR-TAF:

METAR-TAF

机场 :

萨格勒布机场

萨格勒布, 克罗地亚

纬度: 45-44N, 经度: 016-04E, 海拔: 106米

当前天气观测

该预报发布于28分钟前的12:00 UTC
风速10节,风向东北,在北转西北东转东南之间变化
温度 27°C
湿度 48%
气压 1017 hPa
能见度10公里或以上
少量云层高于4700英尺

METAR: LDZA 161200Z 04010KT 340V120 9999 FEW047 27/15 Q1017 NOSIG

时间: 14:28 (12:28 UTC)

预报

该预报发布于1小时和3分钟前的11:25 UTC
预报有效从16日的 12点(UTC)到 17日的 12点(UTC)
风速8节,风向东北
能见度10公里或以上
散云层高于4000英尺
成为
从 16日的 15点(UTC)到 16日的 17点(UTC)
风速2节,风向多变

TAF: LDZA 161125Z 1612/1712 05008KT 9999 SCT040 TX30/1711Z TN16/1703Z BECMG 1615/1617 VRB02KT

超过4000个机场的气象观测和天气预报(METAR&TAF报告)。

可查询的气象台以黄色和红色小点在地图上表示。

将鼠标移到小点上方,可查看气象台名称。

然后点击查看天气观测和预报。

如需切换地图:点击带黑十字的绿色按钮放大地图;点击带横线的绿色按钮缩小地图;或者点击绿色箭头查看邻近地区的地图。


METAR-TAF: